Terminal Aerodrome Forecast
Issued by NWS Memphis, TN

Home | Current Version | Previous Version | Text Only | Print | Product List | Glossary On
Versions: 1 2 3 4 5 6 7 8 9 10 11 12 13 14 15 16 17 18 19 20 21 22 23 24 25 26 27 28 29 30 31 32 33
000
FTUS44 KMEG 061126
TAFMEM
TAF
KMEM 061126Z 0612/0712 21006KT P6SM SCT010 OVC050
      TEMPO 0612/0614 BKN007
     FM061600 22010KT P6SM SCT025 BKN035
     FM062200 20008KT P6SM VCTS SCT040CB
     FM070200 19007KT P6SM BKN040 BKN200=

USA.gov is the U.S. government's official web portal to all federal, state and local government web resources and services.